sensor_id;sensor_type;location;lat;lon;timestamp;P1;durP1;ratioP1;P2;durP2;ratioP2
44694;SDS011;32845;59.422;17.930;2023-07-13T00:01:23;2.70;;;1.85;;
44694;SDS011;32845;59.422;17.930;2023-07-13T00:05:59;5.18;;;1.73;;
44694;SDS011;32845;59.422;17.930;2023-07-13T00:10:30;2.88;;;1.40;;
44694;SDS011;32845;59.422;17.930;2023-07-13T00:15:03;2.45;;;1.45;;
44694;SDS011;32845;59.422;17.930;2023-07-13T00:19:36;3.20;;;1.58;;
44694;SDS011;32845;59.422;17.930;2023-07-13T00:24:07;6.47;;;1.90;;
44694;SDS011;32845;59.422;17.930;2023-07-13T00:28:45;4.97;;;1.80;;
44694;SDS011;32845;59.422;17.930;2023-07-13T00:33:16;2.22;;;1.75;;
44694;SDS011;32845;59.422;17.930;2023-07-13T00:37:46;2.83;;;1.77;;
44694;SDS011;32845;59.422;17.930;2023-07-13T00:42:17;3.22;;;1.92;;
44694;SDS011;32845;59.422;17.930;2023-07-13T00:46:47;6.75;;;1.65;;
44694;SDS011;32845;59.422;17.930;2023-07-13T00:51:21;3.45;;;1.60;;
44694;SDS011;32845;59.422;17.930;2023-07-13T00:55:55;6.95;;;1.90;;
44694;SDS011;32845;59.422;17.930;2023-07-13T01:00:27;2.50;;;1.70;;
44694;SDS011;32845;59.422;17.930;2023-07-13T01:04:59;5.07;;;1.60;;
44694;SDS011;32845;59.422;17.930;2023-07-13T01:09:31;3.15;;;1.70;;
44694;SDS011;32845;59.422;17.930;2023-07-13T01:14:02;5.70;;;2.30;;
44694;SDS011;32845;59.422;17.930;2023-07-13T01:18:33;2.20;;;1.60;;
44694;SDS011;32845;59.422;17.930;2023-07-13T01:23:08;6.10;;;1.90;;
44694;SDS011;32845;59.422;17.930;2023-07-13T01:27:40;4.60;;;1.70;;
44694;SDS011;32845;59.422;17.930;2023-07-13T01:32:17;4.97;;;2.15;;
44694;SDS011;32845;59.422;17.930;2023-07-13T01:36:53;2.42;;;1.63;;
44694;SDS011;32845;59.422;17.930;2023-07-13T01:41:24;4.32;;;1.65;;
44694;SDS011;32845;59.422;17.930;2023-07-13T01:45:55;2.25;;;1.60;;
44694;SDS011;32845;59.422;17.930;2023-07-13T01:50:25;4.05;;;1.85;;
44694;SDS011;32845;59.422;17.930;2023-07-13T01:54:56;5.53;;;1.67;;
44694;SDS011;32845;59.422;17.930;2023-07-13T01:59:27;4.80;;;1.83;;
44694;SDS011;32845;59.422;17.930;2023-07-13T02:03:58;5.35;;;1.80;;
44694;SDS011;32845;59.422;17.930;2023-07-13T02:08:28;4.13;;;2.10;;
44694;SDS011;32845;59.422;17.930;2023-07-13T02:12:59;4.97;;;1.83;;
44694;SDS011;32845;59.422;17.930;2023-07-13T02:17:29;2.78;;;1.73;;
44694;SDS011;32845;59.422;17.930;2023-07-13T02:22:00;8.40;;;1.77;;
44694;SDS011;32845;59.422;17.930;2023-07-13T02:26:31;5.00;;;2.10;;
44694;SDS011;32845;59.422;17.930;2023-07-13T02:31:09;7.55;;;2.40;;
44694;SDS011;32845;59.422;17.930;2023-07-13T02:35:41;4.35;;;2.28;;
44694;SDS011;32845;59.422;17.930;2023-07-13T02:40:11;3.95;;;2.25;;
44694;SDS011;32845;59.422;17.930;2023-07-13T02:44:42;6.95;;;1.88;;
44694;SDS011;32845;59.422;17.930;2023-07-13T02:49:13;10.35;;;2.00;;
44694;SDS011;32845;59.422;17.930;2023-07-13T02:53:43;10.85;;;2.15;;
44694;SDS011;32845;59.422;17.930;2023-07-13T02:58:14;9.13;;;2.13;;
44694;SDS011;32845;59.422;17.930;2023-07-13T03:02:47;3.38;;;2.20;;
44694;SDS011;32845;59.422;17.930;2023-07-13T03:07:18;5.45;;;2.20;;
44694;SDS011;32845;59.422;17.930;2023-07-13T03:11:48;10.05;;;2.42;;
44694;SDS011;32845;59.422;17.930;2023-07-13T03:16:19;3.40;;;2.28;;
44694;SDS011;32845;59.422;17.930;2023-07-13T03:20:50;11.32;;;2.42;;
44694;SDS011;32845;59.422;17.930;2023-07-13T03:25:22;7.03;;;2.47;;
44694;SDS011;32845;59.422;17.930;2023-07-13T03:29:52;9.80;;;2.42;;
44694;SDS011;32845;59.422;17.930;2023-07-13T03:34:23;7.00;;;2.08;;
44694;SDS011;32845;59.422;17.930;2023-07-13T03:38:55;6.43;;;3.05;;
44694;SDS011;32845;59.422;17.930;2023-07-13T03:43:27;8.80;;;2.25;;
44694;SDS011;32845;59.422;17.930;2023-07-13T03:47:57;11.05;;;2.13;;
44694;SDS011;32845;59.422;17.930;2023-07-13T03:52:28;13.05;;;2.38;;
44694;SDS011;32845;59.422;17.930;2023-07-13T03:56:59;9.95;;;2.22;;
44694;SDS011;32845;59.422;17.930;2023-07-13T04:01:29;11.70;;;2.30;;
44694;SDS011;32845;59.422;17.930;2023-07-13T04:06:00;6.93;;;2.10;;
44694;SDS011;32845;59.422;17.930;2023-07-13T04:10:32;9.05;;;2.55;;
44694;SDS011;32845;59.422;17.930;2023-07-13T04:15:02;10.55;;;2.22;;
44694;SDS011;32845;59.422;17.930;2023-07-13T04:19:33;6.35;;;2.10;;
44694;SDS011;32845;59.422;17.930;2023-07-13T04:24:04;4.75;;;1.70;;
44694;SDS011;32845;59.422;17.930;2023-07-13T04:28:35;14.52;;;2.25;;
44694;SDS011;32845;59.422;17.930;2023-07-13T04:33:05;6.30;;;1.88;;
44694;SDS011;32845;59.422;17.930;2023-07-13T04:37:36;9.25;;;2.10;;
44694;SDS011;32845;59.422;17.930;2023-07-13T04:42:07;6.43;;;1.85;;
44694;SDS011;32845;59.422;17.930;2023-07-13T04:46:37;6.15;;;1.40;;
44694;SDS011;32845;59.422;17.930;2023-07-13T04:51:08;3.95;;;1.80;;
44694;SDS011;32845;59.422;17.930;2023-07-13T04:55:39;7.53;;;1.70;;
44694;SDS011;32845;59.422;17.930;2023-07-13T05:00:11;5.63;;;1.98;;
44694;SDS011;32845;59.422;17.930;2023-07-13T05:04:42;4.75;;;1.58;;
44694;SDS011;32845;59.422;17.930;2023-07-13T05:09:16;7.82;;;1.67;;
44694;SDS011;32845;59.422;17.930;2023-07-13T05:13:46;10.95;;;1.58;;
44694;SDS011;32845;59.422;17.930;2023-07-13T05:18:17;4.55;;;1.50;;
44694;SDS011;32845;59.422;17.930;2023-07-13T05:22:47;4.20;;;1.80;;
44694;SDS011;32845;59.422;17.930;2023-07-13T05:27:18;6.20;;;1.25;;
44694;SDS011;32845;59.422;17.930;2023-07-13T05:31:49;6.28;;;1.60;;
44694;SDS011;32845;59.422;17.930;2023-07-13T05:36:20;8.65;;;1.70;;
44694;SDS011;32845;59.422;17.930;2023-07-13T05:40:51;8.73;;;1.65;;
44694;SDS011;32845;59.422;17.930;2023-07-13T05:45:23;4.75;;;1.40;;
44694;SDS011;32845;59.422;17.930;2023-07-13T05:49:53;7.53;;;1.70;;
44694;SDS011;32845;59.422;17.930;2023-07-13T05:54:24;8.40;;;1.73;;
44694;SDS011;32845;59.422;17.930;2023-07-13T05:58:55;4.25;;;1.23;;
44694;SDS011;32845;59.422;17.930;2023-07-13T06:03:26;12.25;;;2.38;;
44694;SDS011;32845;59.422;17.930;2023-07-13T06:07:57;5.57;;;1.75;;
44694;SDS011;32845;59.422;17.930;2023-07-13T06:12:27;4.72;;;0.98;;
44694;SDS011;32845;59.422;17.930;2023-07-13T06:16:58;4.03;;;1.20;;
44694;SDS011;32845;59.422;17.930;2023-07-13T06:21:28;4.28;;;1.00;;
44694;SDS011;32845;59.422;17.930;2023-07-13T06:25:59;5.93;;;1.50;;
44694;SDS011;32845;59.422;17.930;2023-07-13T06:30:30;4.10;;;1.40;;
44694;SDS011;32845;59.422;17.930;2023-07-13T06:35:01;22.63;;;1.50;;
44694;SDS011;32845;59.422;17.930;2023-07-13T06:39:32;4.88;;;1.40;;
44694;SDS011;32845;59.422;17.930;2023-07-13T06:44:03;7.68;;;1.50;;
44694;SDS011;32845;59.422;17.930;2023-07-13T06:48:34;6.05;;;1.70;;
44694;SDS011;32845;59.422;17.930;2023-07-13T06:53:04;6.43;;;1.75;;
44694;SDS011;32845;59.422;17.930;2023-07-13T06:57:35;8.07;;;1.40;;
44694;SDS011;32845;59.422;17.930;2023-07-13T07:02:05;6.10;;;1.45;;
44694;SDS011;32845;59.422;17.930;2023-07-13T07:06:36;5.35;;;1.40;;
44694;SDS011;32845;59.422;17.930;2023-07-13T07:11:14;10.40;;;1.33;;
44694;SDS011;32845;59.422;17.930;2023-07-13T07:15:49;4.40;;;1.30;;
44694;SDS011;32845;59.422;17.930;2023-07-13T07:20:20;4.68;;;1.00;;
44694;SDS011;32845;59.422;17.930;2023-07-13T07:24:51;5.32;;;1.15;;
44694;SDS011;32845;59.422;17.930;2023-07-13T07:29:21;5.57;;;1.55;;
44694;SDS011;32845;59.422;17.930;2023-07-13T07:33:52;5.28;;;1.00;;
44694;SDS011;32845;59.422;17.930;2023-07-13T07:38:23;6.93;;;1.25;;
44694;SDS011;32845;59.422;17.930;2023-07-13T07:42:53;3.17;;;1.10;;
44694;SDS011;32845;59.422;17.930;2023-07-13T07:47:24;9.40;;;1.10;;
44694;SDS011;32845;59.422;17.930;2023-07-13T07:51:55;14.15;;;1.40;;
44694;SDS011;32845;59.422;17.930;2023-07-13T07:56:25;5.22;;;1.20;;
44694;SDS011;32845;59.422;17.930;2023-07-13T08:01:05;5.50;;;1.10;;
44694;SDS011;32845;59.422;17.930;2023-07-13T08:05:36;6.18;;;1.58;;
44694;SDS011;32845;59.422;17.930;2023-07-13T08:10:07;9.20;;;1.48;;
44694;SDS011;32845;59.422;17.930;2023-07-13T08:14:38;5.55;;;1.20;;
44694;SDS011;32845;59.422;17.930;2023-07-13T08:19:08;4.93;;;1.30;;
44694;SDS011;32845;59.422;17.930;2023-07-13T08:23:39;6.80;;;1.00;;
44694;SDS011;32845;59.422;17.930;2023-07-13T08:28:09;3.92;;;0.90;;
44694;SDS011;32845;59.422;17.930;2023-07-13T08:32:40;5.10;;;1.30;;
44694;SDS011;32845;59.422;17.930;2023-07-13T08:37:10;5.03;;;1.00;;
44694;SDS011;32845;59.422;17.930;2023-07-13T08:41:41;8.35;;;1.33;;
44694;SDS011;32845;59.422;17.930;2023-07-13T08:46:28;4.18;;;1.23;;
44694;SDS011;32845;59.422;17.930;2023-07-13T08:51:12;6.32;;;1.10;;
44694;SDS011;32845;59.422;17.930;2023-07-13T08:55:57;6.25;;;1.08;;
44694;SDS011;32845;59.422;17.930;2023-07-13T09:00:33;6.03;;;1.02;;
44694;SDS011;32845;59.422;17.930;2023-07-13T09:05:36;3.20;;;1.00;;
44694;SDS011;32845;59.422;17.930;2023-07-13T09:10:20;4.40;;;0.90;;
44694;SDS011;32845;59.422;17.930;2023-07-13T09:14:54;3.50;;;1.05;;
44694;SDS011;32845;59.422;17.930;2023-07-13T09:19:28;5.85;;;1.15;;
44694;SDS011;32845;59.422;17.930;2023-07-13T09:29:09;6.22;;;1.25;;
44694;SDS011;32845;59.422;17.930;2023-07-13T09:33:44;5.20;;;0.90;;
44694;SDS011;32845;59.422;17.930;2023-07-13T09:38:16;8.98;;;1.15;;
44694;SDS011;32845;59.422;17.930;2023-07-13T09:42:49;4.80;;;1.23;;
44694;SDS011;32845;59.422;17.930;2023-07-13T09:47:23;4.45;;;1.48;;
44694;SDS011;32845;59.422;17.930;2023-07-13T09:52:00;3.85;;;1.08;;
44694;SDS011;32845;59.422;17.930;2023-07-13T09:56:33;2.05;;;0.70;;
44694;SDS011;32845;59.422;17.930;2023-07-13T10:01:04;3.63;;;0.70;;
44694;SDS011;32845;59.422;17.930;2023-07-13T10:05:42;7.15;;;1.00;;
44694;SDS011;32845;59.422;17.930;2023-07-13T10:10:15;8.15;;;0.95;;
44694;SDS011;32845;59.422;17.930;2023-07-13T10:14:54;6.93;;;1.27;;
44694;SDS011;32845;59.422;17.930;2023-07-13T10:19:26;4.35;;;1.33;;
44694;SDS011;32845;59.422;17.930;2023-07-13T10:24:20;3.60;;;0.95;;
44694;SDS011;32845;59.422;17.930;2023-07-13T10:28:54;3.58;;;1.00;;
44694;SDS011;32845;59.422;17.930;2023-07-13T10:33:29;1.95;;;0.80;;
44694;SDS011;32845;59.422;17.930;2023-07-13T10:38:01;5.75;;;1.15;;
44694;SDS011;32845;59.422;17.930;2023-07-13T10:42:37;6.03;;;0.98;;
44694;SDS011;32845;59.422;17.930;2023-07-13T10:47:12;3.63;;;0.90;;
44694;SDS011;32845;59.422;17.930;2023-07-13T10:51:47;12.07;;;1.30;;
44694;SDS011;32845;59.422;17.930;2023-07-13T10:56:28;3.75;;;1.00;;
44694;SDS011;32845;59.422;17.930;2023-07-13T11:05:36;7.53;;;1.00;;
44694;SDS011;32845;59.422;17.930;2023-07-13T11:10:09;5.25;;;1.02;;
44694;SDS011;32845;59.422;17.930;2023-07-13T11:15:30;5.75;;;0.85;;
44694;SDS011;32845;59.422;17.930;2023-07-13T11:24:52;5.32;;;1.10;;
44694;SDS011;32845;59.422;17.930;2023-07-13T11:34:01;2.97;;;0.77;;
44694;SDS011;32845;59.422;17.930;2023-07-13T11:43:07;8.00;;;1.08;;
44694;SDS011;32845;59.422;17.930;2023-07-13T11:47:42;4.47;;;1.15;;
44694;SDS011;32845;59.422;17.930;2023-07-13T11:52:14;3.42;;;1.00;;
44694;SDS011;32845;59.422;17.930;2023-07-13T11:56:47;4.68;;;0.85;;
44694;SDS011;32845;59.422;17.930;2023-07-13T12:01:27;4.10;;;0.77;;
44694;SDS011;32845;59.422;17.930;2023-07-13T12:06:04;2.40;;;0.90;;
44694;SDS011;32845;59.422;17.930;2023-07-13T12:10:48;3.30;;;0.80;;
44694;SDS011;32845;59.422;17.930;2023-07-13T12:15:44;4.68;;;0.73;;
44694;SDS011;32845;59.422;17.930;2023-07-13T12:20:20;6.18;;;1.17;;
44694;SDS011;32845;59.422;17.930;2023-07-13T12:24:55;8.35;;;1.13;;
44694;SDS011;32845;59.422;17.930;2023-07-13T12:29:26;3.00;;;0.90;;
44694;SDS011;32845;59.422;17.930;2023-07-13T12:33:58;5.47;;;2.22;;
44694;SDS011;32845;59.422;17.930;2023-07-13T12:38:32;4.15;;;1.20;;
44694;SDS011;32845;59.422;17.930;2023-07-13T12:43:03;1.73;;;0.60;;
44694;SDS011;32845;59.422;17.930;2023-07-13T12:47:43;4.97;;;0.80;;
44694;SDS011;32845;59.422;17.930;2023-07-13T12:52:20;10.23;;;1.40;;
44694;SDS011;32845;59.422;17.930;2023-07-13T12:56:53;6.03;;;1.20;;
44694;SDS011;32845;59.422;17.930;2023-07-13T13:01:29;5.38;;;1.25;;
44694;SDS011;32845;59.422;17.930;2023-07-13T13:06:05;7.85;;;1.13;;
44694;SDS011;32845;59.422;17.930;2023-07-13T13:10:49;1.80;;;0.80;;
44694;SDS011;32845;59.422;17.930;2023-07-13T13:15:20;1.58;;;0.80;;
44694;SDS011;32845;59.422;17.930;2023-07-13T13:19:52;5.47;;;1.02;;
44694;SDS011;32845;59.422;17.930;2023-07-13T13:24:25;2.53;;;0.60;;
44694;SDS011;32845;59.422;17.930;2023-07-13T13:28:57;2.88;;;0.93;;
44694;SDS011;32845;59.422;17.930;2023-07-13T13:33:27;3.72;;;1.05;;
44694;SDS011;32845;59.422;17.930;2023-07-13T13:37:58;8.95;;;1.52;;
44694;SDS011;32845;59.422;17.930;2023-07-13T13:42:29;3.35;;;1.25;;
44694;SDS011;32845;59.422;17.930;2023-07-13T13:46:59;4.35;;;1.25;;
44694;SDS011;32845;59.422;17.930;2023-07-13T13:51:30;5.93;;;0.90;;
44694;SDS011;32845;59.422;17.930;2023-07-13T13:56:01;5.82;;;1.33;;
44694;SDS011;32845;59.422;17.930;2023-07-13T14:00:32;4.32;;;1.10;;
44694;SDS011;32845;59.422;17.930;2023-07-13T14:05:02;2.67;;;0.80;;
44694;SDS011;32845;59.422;17.930;2023-07-13T14:09:34;2.67;;;0.85;;
44694;SDS011;32845;59.422;17.930;2023-07-13T14:14:05;2.50;;;0.70;;
44694;SDS011;32845;59.422;17.930;2023-07-13T14:18:38;4.65;;;0.85;;
44694;SDS011;32845;59.422;17.930;2023-07-13T14:23:09;2.50;;;0.98;;
44694;SDS011;32845;59.422;17.930;2023-07-13T14:27:40;4.82;;;1.00;;
44694;SDS011;32845;59.422;17.930;2023-07-13T14:32:11;1.60;;;0.60;;
44694;SDS011;32845;59.422;17.930;2023-07-13T14:36:43;2.28;;;0.70;;
44694;SDS011;32845;59.422;17.930;2023-07-13T14:41:17;5.80;;;0.70;;
44694;SDS011;32845;59.422;17.930;2023-07-13T14:45:48;8.27;;;0.93;;
44694;SDS011;32845;59.422;17.930;2023-07-13T14:50:38;5.40;;;0.90;;
44694;SDS011;32845;59.422;17.930;2023-07-13T14:55:11;6.28;;;1.00;;
44694;SDS011;32845;59.422;17.930;2023-07-13T14:59:46;1.70;;;0.70;;
44694;SDS011;32845;59.422;17.930;2023-07-13T15:04:18;1.85;;;0.80;;
44694;SDS011;32845;59.422;17.930;2023-07-13T15:08:48;4.78;;;0.80;;
44694;SDS011;32845;59.422;17.930;2023-07-13T15:13:20;3.05;;;0.82;;
44694;SDS011;32845;59.422;17.930;2023-07-13T15:17:51;2.08;;;0.75;;
44694;SDS011;32845;59.422;17.930;2023-07-13T15:22:22;11.65;;;1.20;;
44694;SDS011;32845;59.422;17.930;2023-07-13T15:26:53;3.45;;;1.02;;
44694;SDS011;32845;59.422;17.930;2023-07-13T15:31:24;5.40;;;1.00;;
44694;SDS011;32845;59.422;17.930;2023-07-13T15:36:01;3.33;;;1.13;;
44694;SDS011;32845;59.422;17.930;2023-07-13T15:40:34;4.93;;;1.58;;
44694;SDS011;32845;59.422;17.930;2023-07-13T15:45:09;4.75;;;0.90;;
44694;SDS011;32845;59.422;17.930;2023-07-13T15:49:45;3.35;;;0.82;;
44694;SDS011;32845;59.422;17.930;2023-07-13T15:54:16;4.18;;;0.90;;
44694;SDS011;32845;59.422;17.930;2023-07-13T15:58:49;3.42;;;0.90;;
44694;SDS011;32845;59.422;17.930;2023-07-13T16:03:20;3.38;;;1.20;;
44694;SDS011;32845;59.422;17.930;2023-07-13T16:07:51;5.50;;;1.45;;
44694;SDS011;32845;59.422;17.930;2023-07-13T16:12:23;5.82;;;1.63;;
44694;SDS011;32845;59.422;17.930;2023-07-13T16:16:54;4.18;;;1.10;;
44694;SDS011;32845;59.422;17.930;2023-07-13T16:21:26;4.13;;;1.30;;
44694;SDS011;32845;59.422;17.930;2023-07-13T16:25:58;3.17;;;1.00;;
44694;SDS011;32845;59.422;17.930;2023-07-13T16:30:30;7.53;;;1.40;;
44694;SDS011;32845;59.422;17.930;2023-07-13T16:35:02;7.45;;;1.40;;
44694;SDS011;32845;59.422;17.930;2023-07-13T16:39:34;10.52;;;1.75;;
44694;SDS011;32845;59.422;17.930;2023-07-13T16:44:09;9.07;;;1.33;;
44694;SDS011;32845;59.422;17.930;2023-07-13T16:48:41;3.85;;;1.40;;
44694;SDS011;32845;59.422;17.930;2023-07-13T16:53:18;7.18;;;1.40;;
44694;SDS011;32845;59.422;17.930;2023-07-13T16:57:51;2.67;;;0.98;;
44694;SDS011;32845;59.422;17.930;2023-07-13T17:02:30;5.30;;;1.15;;
44694;SDS011;32845;59.422;17.930;2023-07-13T17:07:07;6.32;;;1.30;;
44694;SDS011;32845;59.422;17.930;2023-07-13T17:11:39;4.45;;;1.10;;
44694;SDS011;32845;59.422;17.930;2023-07-13T17:16:11;7.03;;;1.83;;
44694;SDS011;32845;59.422;17.930;2023-07-13T17:20:44;3.63;;;1.27;;
44694;SDS011;32845;59.422;17.930;2023-07-13T17:25:17;5.57;;;1.00;;
44694;SDS011;32845;59.422;17.930;2023-07-13T17:29:49;1.63;;;1.02;;
44694;SDS011;32845;59.422;17.930;2023-07-13T17:34:20;3.72;;;1.00;;
44694;SDS011;32845;59.422;17.930;2023-07-13T17:38:50;4.85;;;0.80;;
44694;SDS011;32845;59.422;17.930;2023-07-13T17:43:26;1.60;;;0.65;;
44694;SDS011;32845;59.422;17.930;2023-07-13T17:47:57;1.00;;;0.65;;
44694;SDS011;32845;59.422;17.930;2023-07-13T17:52:29;5.53;;;1.80;;
44694;SDS011;32845;59.422;17.930;2023-07-13T17:57:00;11.10;;;1.00;;
44694;SDS011;32845;59.422;17.930;2023-07-13T18:01:31;7.20;;;1.48;;
44694;SDS011;32845;59.422;17.930;2023-07-13T18:06:03;8.07;;;1.30;;
44694;SDS011;32845;59.422;17.930;2023-07-13T18:10:35;7.00;;;1.77;;
44694;SDS011;32845;59.422;17.930;2023-07-13T18:15:06;2.33;;;0.90;;
44694;SDS011;32845;59.422;17.930;2023-07-13T18:19:39;1.85;;;0.90;;
44694;SDS011;32845;59.422;17.930;2023-07-13T18:24:13;4.05;;;1.10;;
44694;SDS011;32845;59.422;17.930;2023-07-13T18:28:43;3.60;;;1.10;;
44694;SDS011;32845;59.422;17.930;2023-07-13T18:33:21;2.03;;;0.80;;
44694;SDS011;32845;59.422;17.930;2023-07-13T18:37:54;1.65;;;0.80;;
44694;SDS011;32845;59.422;17.930;2023-07-13T18:42:26;2.78;;;0.70;;
44694;SDS011;32845;59.422;17.930;2023-07-13T18:46:57;6.95;;;1.10;;
44694;SDS011;32845;59.422;17.930;2023-07-13T18:51:27;3.00;;;0.77;;
44694;SDS011;32845;59.422;17.930;2023-07-13T18:55:58;2.10;;;0.90;;
44694;SDS011;32845;59.422;17.930;2023-07-13T19:00:30;2.20;;;0.93;;
44694;SDS011;32845;59.422;17.930;2023-07-13T19:05:00;3.03;;;0.93;;
44694;SDS011;32845;59.422;17.930;2023-07-13T19:09:31;2.45;;;0.90;;
44694;SDS011;32845;59.422;17.930;2023-07-13T19:14:04;5.68;;;0.88;;
44694;SDS011;32845;59.422;17.930;2023-07-13T19:18:45;7.05;;;0.93;;
44694;SDS011;32845;59.422;17.930;2023-07-13T19:28:02;2.10;;;0.65;;
44694;SDS011;32845;59.422;17.930;2023-07-13T19:32:53;1.80;;;0.90;;
44694;SDS011;32845;59.422;17.930;2023-07-13T19:37:25;2.90;;;0.90;;
44694;SDS011;32845;59.422;17.930;2023-07-13T19:41:56;2.55;;;0.77;;
44694;SDS011;32845;59.422;17.930;2023-07-13T19:46:33;4.97;;;0.68;;
44694;SDS011;32845;59.422;17.930;2023-07-13T19:51:08;1.48;;;0.70;;
44694;SDS011;32845;59.422;17.930;2023-07-13T19:55:45;18.40;;;1.05;;
44694;SDS011;32845;59.422;17.930;2023-07-13T20:00:26;1.08;;;0.75;;
44694;SDS011;32845;59.422;17.930;2023-07-13T20:04:57;2.30;;;0.60;;
44694;SDS011;32845;59.422;17.930;2023-07-13T20:09:28;1.75;;;0.90;;
44694;SDS011;32845;59.422;17.930;2023-07-13T20:14:25;4.63;;;0.90;;
44694;SDS011;32845;59.422;17.930;2023-07-13T20:18:56;2.15;;;0.88;;
44694;SDS011;32845;59.422;17.930;2023-07-13T20:23:27;2.78;;;1.10;;
44694;SDS011;32845;59.422;17.930;2023-07-13T20:27:59;3.90;;;1.17;;
44694;SDS011;32845;59.422;17.930;2023-07-13T20:32:34;2.33;;;0.82;;
44694;SDS011;32845;59.422;17.930;2023-07-13T20:37:26;2.03;;;0.90;;
44694;SDS011;32845;59.422;17.930;2023-07-13T20:42:01;3.15;;;1.10;;
44694;SDS011;32845;59.422;17.930;2023-07-13T20:46:31;2.30;;;1.02;;
44694;SDS011;32845;59.422;17.930;2023-07-13T20:51:03;3.33;;;0.98;;
44694;SDS011;32845;59.422;17.930;2023-07-13T20:55:34;4.25;;;2.25;;
44694;SDS011;32845;59.422;17.930;2023-07-13T21:00:05;5.97;;;1.80;;
44694;SDS011;32845;59.422;17.930;2023-07-13T21:04:37;2.83;;;1.23;;
44694;SDS011;32845;59.422;17.930;2023-07-13T21:09:09;2.83;;;1.30;;
44694;SDS011;32845;59.422;17.930;2023-07-13T21:13:46;5.70;;;1.42;;
44694;SDS011;32845;59.422;17.930;2023-07-13T21:18:18;8.60;;;1.33;;
44694;SDS011;32845;59.422;17.930;2023-07-13T21:22:53;1.85;;;1.00;;
44694;SDS011;32845;59.422;17.930;2023-07-13T21:27:24;2.78;;;1.17;;
44694;SDS011;32845;59.422;17.930;2023-07-13T21:31:55;3.85;;;1.23;;
44694;SDS011;32845;59.422;17.930;2023-07-13T21:36:25;3.45;;;1.30;;
44694;SDS011;32845;59.422;17.930;2023-07-13T21:40:59;2.67;;;0.95;;
44694;SDS011;32845;59.422;17.930;2023-07-13T21:45:32;4.32;;;1.17;;
44694;SDS011;32845;59.422;17.930;2023-07-13T21:50:03;2.35;;;1.10;;
44694;SDS011;32845;59.422;17.930;2023-07-13T21:54:34;3.35;;;1.65;;
44694;SDS011;32845;59.422;17.930;2023-07-13T21:59:09;5.47;;;0.90;;
44694;SDS011;32845;59.422;17.930;2023-07-13T22:03:54;8.73;;;1.20;;
44694;SDS011;32845;59.422;17.930;2023-07-13T22:08:31;1.83;;;0.95;;
44694;SDS011;32845;59.422;17.930;2023-07-13T22:13:05;2.95;;;1.00;;
44694;SDS011;32845;59.422;17.930;2023-07-13T22:17:35;3.13;;;1.02;;
44694;SDS011;32845;59.422;17.930;2023-07-13T22:22:07;4.57;;;1.27;;
44694;SDS011;32845;59.422;17.930;2023-07-13T22:26:37;3.33;;;1.02;;
44694;SDS011;32845;59.422;17.930;2023-07-13T22:31:08;3.17;;;1.05;;
44694;SDS011;32845;59.422;17.930;2023-07-13T22:35:39;1.85;;;0.80;;
44694;SDS011;32845;59.422;17.930;2023-07-13T22:40:11;1.73;;;0.90;;
44694;SDS011;32845;59.422;17.930;2023-07-13T22:44:46;4.50;;;1.10;;
44694;SDS011;32845;59.422;17.930;2023-07-13T22:49:18;1.80;;;0.90;;
44694;SDS011;32845;59.422;17.930;2023-07-13T22:53:50;2.20;;;1.25;;
44694;SDS011;32845;59.422;17.930;2023-07-13T22:58:23;5.85;;;1.00;;
44694;SDS011;32845;59.422;17.930;2023-07-13T23:02:56;2.85;;;0.90;;
44694;SDS011;32845;59.422;17.930;2023-07-13T23:07:26;3.13;;;0.90;;
44694;SDS011;32845;59.422;17.930;2023-07-13T23:11:59;2.30;;;0.80;;
44694;SDS011;32845;59.422;17.930;2023-07-13T23:16:30;3.00;;;0.85;;
44694;SDS011;32845;59.422;17.930;2023-07-13T23:21:01;3.30;;;0.82;;
44694;SDS011;32845;59.422;17.930;2023-07-13T23:25:32;2.72;;;1.05;;
44694;SDS011;32845;59.422;17.930;2023-07-13T23:30:03;2.90;;;1.10;;
44694;SDS011;32845;59.422;17.930;2023-07-13T23:34:34;1.40;;;0.98;;
44694;SDS011;32845;59.422;17.930;2023-07-13T23:39:05;3.40;;;0.85;;
44694;SDS011;32845;59.422;17.930;2023-07-13T23:48:14;2.45;;;0.70;;
44694;SDS011;32845;59.422;17.930;2023-07-13T23:52:45;5.85;;;1.10;;
44694;SDS011;32845;59.422;17.930;2023-07-13T23:57:16;3.78;;;1.05;;
